createdAt,value
2019-04-05T06:00:34.448Z,11.80
2019-04-05T06:01:34.393Z,27.20
2019-04-05T06:02:34.361Z,28.00
2019-04-05T06:03:34.333Z,28.20
2019-04-05T06:04:34.340Z,28.40
2019-04-05T06:05:34.314Z,29.30
2019-04-05T06:06:34.354Z,28.70
2019-04-05T06:07:34.292Z,28.10
2019-04-05T06:08:34.294Z,29.30
2019-04-05T06:09:34.347Z,29.90
2019-04-05T06:10:34.287Z,28.70
2019-04-05T06:11:34.302Z,26.40
2019-04-05T06:12:34.274Z,27.00
2019-04-05T06:13:34.228Z,30.60
2019-04-05T06:14:34.263Z,38.90
2019-04-05T06:15:37.315Z,44.40
2019-04-05T06:16:45.917Z,36.50
2019-04-05T06:17:35.187Z,37.70
2019-04-05T06:18:34.238Z,32.60
2019-04-05T06:19:34.167Z,31.00
2019-04-05T06:20:34.155Z,31.90
2019-04-05T06:21:34.180Z,29.10
2019-04-05T06:22:34.139Z,27.90
2019-04-05T06:23:34.438Z,29.70
2019-04-05T06:24:34.141Z,29.40
2019-04-05T06:25:34.110Z,29.10
2019-04-05T06:26:34.135Z,28.40
2019-04-05T06:27:35.517Z,30.00
2019-04-05T06:28:34.093Z,27.60
2019-04-05T06:29:34.135Z,27.70
2019-04-05T06:30:34.050Z,27.90
2019-04-05T06:31:34.049Z,28.30
2019-04-05T06:32:34.075Z,25.90
2019-04-05T06:33:35.831Z,27.60
2019-04-05T06:34:34.020Z,27.30
2019-04-05T06:35:33.993Z,27.40
2019-04-05T06:36:33.984Z,26.50
2019-04-05T06:37:34.029Z,24.10
2019-04-05T06:38:33.978Z,29.20
2019-04-05T06:39:33.960Z,26.30
2019-04-05T06:40:40.537Z,26.00
2019-04-05T06:41:34.927Z,25.40
2019-04-05T06:42:33.948Z,27.40
2019-04-05T06:43:33.951Z,29.60
2019-04-05T06:44:33.906Z,27.60
2019-04-05T06:45:33.890Z,28.90
2019-04-05T06:46:33.878Z,27.20
2019-04-05T06:47:33.898Z,27.80
2019-04-05T06:48:33.853Z,27.40
2019-04-05T06:49:33.855Z,28.50
2019-04-05T06:50:33.829Z,28.90
2019-04-05T06:51:33.821Z,26.90
2019-04-05T06:52:33.869Z,29.70
2019-04-05T06:53:33.802Z,29.00
2019-04-05T06:54:33.793Z,26.50
2019-04-05T06:55:33.806Z,26.50
2019-04-05T06:56:33.796Z,29.30
2019-04-05T06:57:33.754Z,28.10
2019-04-05T06:58:33.744Z,27.20
2019-04-05T06:59:33.776Z,27.70
2019-04-05T07:00:33.736Z,27.70
2019-04-05T07:01:33.721Z,30.90
2019-04-05T07:02:33.703Z,29.00
2019-04-05T07:03:33.722Z,32.50
2019-04-05T07:04:33.721Z,34.70
2019-04-05T07:05:33.678Z,29.10
2019-04-05T07:06:33.671Z,26.60
2019-04-05T07:07:33.649Z,27.30
2019-04-05T07:08:33.633Z,29.10
2019-04-05T07:09:34.273Z,27.50
2019-04-05T07:10:33.648Z,29.60
2019-04-05T07:11:33.617Z,29.00
2019-04-05T07:12:33.621Z,28.60
2019-04-05T07:13:33.596Z,26.80
2019-04-05T07:14:33.585Z,28.30
2019-04-05T07:15:33.605Z,29.00
2019-04-05T07:16:33.557Z,29.90
2019-04-05T07:17:33.547Z,28.20
2019-04-05T07:18:36.146Z,26.60
2019-04-05T07:19:33.519Z,27.60
2019-04-05T07:20:33.519Z,29.90
2019-04-05T07:21:33.509Z,29.30
2019-04-05T07:22:39.186Z,30.80
2019-04-05T07:23:34.511Z,28.40
2019-04-05T07:24:33.471Z,30.50
2019-04-05T07:25:33.461Z,30.10
2019-04-05T07:26:33.484Z,32.10
2019-04-05T07:27:33.437Z,28.20
2019-04-05T07:28:33.431Z,30.00
2019-04-05T07:29:33.454Z,30.20
2019-04-05T07:30:33.448Z,28.00
2019-04-05T07:31:33.401Z,29.40
2019-04-05T07:32:33.385Z,30.10
2019-04-05T07:33:33.374Z,30.00
2019-04-05T07:34:33.411Z,27.20
2019-04-05T07:35:34.137Z,30.40
2019-04-05T07:36:33.349Z,28.60
2019-04-05T07:37:33.336Z,26.20
2019-04-05T07:38:33.320Z,29.30
2019-04-05T07:39:33.358Z,27.80
2019-04-05T07:40:33.297Z,28.50
2019-04-05T07:41:33.289Z,27.60
2019-04-05T07:42:33.288Z,29.20
2019-04-05T07:43:33.269Z,29.40
2019-04-05T07:44:33.292Z,27.70
2019-04-05T07:45:33.254Z,28.70
2019-04-05T07:46:33.263Z,28.20
2019-04-05T07:47:33.232Z,29.90
2019-04-05T07:48:44.263Z,27.90
2019-04-05T07:49:34.239Z,27.80
2019-04-05T07:50:33.196Z,28.00
2019-04-05T07:51:33.210Z,27.00
2019-04-05T07:52:33.178Z,27.50
2019-04-05T07:53:33.209Z,30.00
2019-04-05T07:54:33.174Z,25.30
2019-04-05T07:55:33.149Z,28.00
2019-04-05T07:56:33.135Z,27.80
2019-04-05T07:57:33.123Z,27.30
2019-04-05T07:58:33.125Z,27.40
2019-04-05T07:59:33.142Z,26.90
2019-04-05T08:00:33.089Z,27.10
2019-04-05T08:01:33.082Z,25.80
2019-04-05T08:02:33.107Z,24.80
2019-04-05T08:03:33.075Z,26.40
2019-04-05T08:04:33.041Z,26.90
2019-04-05T08:05:33.047Z,26.90
2019-04-05T08:06:33.054Z,24.20
2019-04-05T08:07:33.031Z,25.90
2019-04-05T08:08:33.010Z,24.20
2019-04-05T08:09:32.985Z,26.50
2019-04-05T08:10:32.988Z,25.90
2019-04-05T08:11:33.004Z,28.30
2019-04-05T08:12:32.964Z,28.30
2019-04-05T08:13:32.959Z,28.20
2019-04-05T08:14:32.963Z,27.40
2019-04-05T08:15:32.940Z,23.20
2019-04-05T08:16:32.957Z,25.60
2019-04-05T08:17:32.904Z,24.70
2019-04-05T08:18:32.932Z,22.80
2019-04-05T08:19:32.893Z,22.30
2019-04-05T08:20:32.874Z,23.80
2019-04-05T08:21:32.911Z,22.60
2019-04-05T08:22:32.898Z,23.10
2019-04-05T08:23:32.860Z,23.50
2019-04-05T08:24:32.881Z,26.90
2019-04-05T08:25:32.826Z,35.50
2019-04-05T08:26:32.824Z,28.00
2019-04-05T08:27:32.836Z,23.80
2019-04-05T08:28:32.810Z,22.40
2019-04-05T08:29:32.788Z,23.30
2019-04-05T08:30:32.812Z,22.10
2019-04-05T08:31:32.762Z,23.60
2019-04-05T08:32:32.782Z,22.60
2019-04-05T08:33:32.747Z,24.50
2019-04-05T08:34:32.730Z,27.30
2019-04-05T08:35:32.715Z,25.40
2019-04-05T08:36:32.890Z,23.10
2019-04-05T08:37:32.695Z,22.90
2019-04-05T08:38:32.719Z,23.80
2019-04-05T08:39:32.678Z,24.50
2019-04-05T08:40:32.722Z,24.80
2019-04-05T08:41:32.653Z,23.80
2019-04-05T08:42:32.636Z,22.00
2019-04-05T08:43:32.631Z,23.20
2019-04-05T08:44:32.632Z,25.30
2019-04-05T08:45:32.658Z,25.20
2019-04-05T08:46:32.611Z,26.00
2019-04-05T08:47:32.584Z,23.90
2019-04-05T08:48:32.613Z,22.70
2019-04-05T08:49:32.564Z,23.70
2019-04-05T08:50:32.571Z,23.30
2019-04-05T08:51:32.576Z,22.20
2019-04-05T08:52:32.543Z,23.60
2019-04-05T08:53:32.576Z,24.80
2019-04-05T08:54:36.314Z,25.10
2019-04-05T08:55:32.536Z,15.00
2019-04-05T08:56:32.502Z,15.60
2019-04-05T08:57:32.528Z,15.40
2019-04-05T08:58:33.537Z,18.10
2019-04-05T08:59:32.456Z,20.00
2019-04-05T09:00:32.450Z,17.00
2019-04-05T09:01:32.442Z,16.90
2019-04-05T09:02:32.469Z,15.70
2019-04-05T09:03:32.414Z,14.60
2019-04-05T09:04:32.468Z,15.40
2019-04-05T09:05:33.514Z,16.20
2019-04-05T09:06:32.391Z,16.10
2019-04-05T09:07:32.385Z,15.90
2019-04-05T09:08:32.393Z,16.80
2019-04-05T09:09:32.350Z,15.90
2019-04-05T09:10:32.346Z,17.40
2019-04-05T09:11:32.358Z,17.20
2019-04-05T09:12:32.339Z,18.30
2019-04-05T09:13:32.348Z,18.40
2019-04-05T09:14:32.310Z,18.30
2019-04-05T09:15:32.285Z,17.70
2019-04-05T09:16:32.282Z,18.20
2019-04-05T09:17:32.280Z,18.00
2019-04-05T09:18:32.466Z,18.30
2019-04-05T09:19:32.261Z,18.90
2019-04-05T09:20:32.265Z,19.80
2019-04-05T09:21:32.222Z,20.20
2019-04-05T09:22:32.222Z,19.30
2019-04-05T09:23:32.200Z,21.50
2019-04-05T09:24:32.194Z,21.30
2019-04-05T09:25:32.254Z,22.50
2019-04-05T09:26:32.224Z,22.10
2019-04-05T09:27:32.160Z,22.50
2019-04-05T09:28:32.158Z,21.00
2019-04-05T09:29:32.146Z,22.30
2019-04-05T09:30:32.131Z,22.00
2019-04-05T09:31:32.139Z,21.80
2019-04-05T09:32:32.104Z,22.80
2019-04-05T09:33:32.132Z,21.60
2019-04-05T09:34:32.100Z,24.20
2019-04-05T09:35:32.087Z,22.60
2019-04-05T09:36:32.070Z,20.50
2019-04-05T09:37:32.084Z,22.40
2019-04-05T09:38:32.043Z,20.90
2019-04-05T09:39:32.040Z,21.30
2019-04-05T09:40:32.036Z,20.80
2019-04-05T09:41:32.016Z,20.40
2019-04-05T09:42:32.034Z,19.70
2019-04-05T09:43:32.031Z,22.30
2019-04-05T09:44:31.977Z,20.70
2019-04-05T09:45:31.964Z,20.80
2019-04-05T09:46:31.955Z,22.20
2019-04-05T09:47:31.978Z,22.60
2019-04-05T09:48:31.969Z,21.20
2019-04-05T09:49:37.020Z,21.30
2019-04-05T09:50:32.924Z,20.10
2019-04-05T09:51:31.908Z,24.40
2019-04-05T09:52:31.890Z,20.30
2019-04-05T09:53:31.907Z,21.50
2019-04-05T09:54:31.874Z,21.20
2019-04-05T09:55:31.879Z,21.30
2019-04-05T09:56:31.855Z,20.80
2019-04-05T09:57:31.839Z,20.80
2019-04-05T09:58:31.861Z,20.90
2019-04-05T09:59:31.827Z,21.60
2019-04-05T10:00:31.832Z,21.20
2019-04-05T10:01:31.830Z,21.90
2019-04-05T10:02:32.016Z,20.50
2019-04-05T10:03:31.807Z,21.50
2019-04-05T10:04:31.763Z,20.20
2019-04-05T10:05:31.776Z,19.90
2019-04-05T10:06:31.740Z,21.00
2019-04-05T10:07:31.738Z,18.60
2019-04-05T10:08:31.725Z,19.30
2019-04-05T10:09:31.725Z,17.90
2019-04-05T10:10:31.735Z,21.70
2019-04-05T10:11:31.696Z,20.30
2019-04-05T10:12:31.704Z,19.60
2019-04-05T10:13:31.676Z,19.70
2019-04-05T10:14:31.699Z,22.40
2019-04-05T10:15:31.647Z,21.70
2019-04-05T10:16:31.677Z,21.80
2019-04-05T10:17:31.625Z,21.40
2019-04-05T10:18:31.613Z,20.40
2019-04-05T10:19:31.603Z,21.10
2019-04-05T10:20:31.607Z,21.80
2019-04-05T10:21:31.612Z,20.70
2019-04-05T10:22:31.575Z,22.50
2019-04-05T10:23:31.572Z,20.70
2019-04-05T10:24:33.121Z,21.00
2019-04-05T10:25:31.538Z,20.40
2019-04-05T10:26:31.558Z,19.60
2019-04-05T10:27:31.517Z,21.80
2019-04-05T10:28:31.552Z,21.00
2019-04-05T10:29:31.505Z,21.00
2019-04-05T10:30:31.491Z,22.50
2019-04-05T10:31:31.478Z,20.40
2019-04-05T10:32:31.480Z,18.60
2019-04-05T10:33:31.487Z,20.50
2019-04-05T10:34:31.448Z,20.20
2019-04-05T10:35:32.449Z,22.50
2019-04-05T10:36:31.447Z,22.10
2019-04-05T10:37:31.445Z,26.20
2019-04-05T10:38:31.401Z,22.80
2019-04-05T10:39:31.416Z,21.60
2019-04-05T10:40:32.381Z,22.90
2019-04-05T10:41:31.430Z,21.30
2019-04-05T10:42:31.366Z,21.70
2019-04-05T10:43:31.351Z,21.60
2019-04-05T10:44:31.351Z,22.70
2019-04-05T10:45:31.346Z,22.30
2019-04-05T10:46:31.348Z,20.60
2019-04-05T10:47:31.309Z,20.40
2019-04-05T10:48:31.301Z,22.20
2019-04-05T10:49:31.317Z,22.00
2019-04-05T10:50:31.273Z,19.50
2019-04-05T10:51:31.299Z,18.60
2019-04-05T10:52:31.261Z,19.20
2019-04-05T10:53:31.245Z,18.50
2019-04-05T10:54:31.241Z,18.20
2019-04-05T10:55:31.223Z,20.00
2019-04-05T10:56:31.247Z,19.30
2019-04-05T10:57:31.200Z,19.10
2019-04-05T10:58:31.205Z,18.00
2019-04-05T10:59:31.181Z,19.20
2019-04-05T11:00:31.164Z,18.30
2019-04-05T11:01:31.196Z,18.50
2019-04-05T11:02:31.194Z,21.00
2019-04-05T11:03:31.141Z,17.30
2019-04-05T11:04:31.146Z,17.40
2019-04-05T11:05:31.278Z,17.60
2019-04-05T11:06:31.140Z,16.30
2019-04-05T11:07:31.092Z,16.80
2019-04-05T11:08:31.093Z,18.00
2019-04-05T11:09:31.086Z,17.90
2019-04-05T11:10:31.059Z,17.20
2019-04-05T11:11:31.115Z,17.40
2019-04-05T11:12:31.054Z,17.40
2019-04-05T11:13:31.036Z,15.80
2019-04-05T11:14:31.018Z,15.90
2019-04-05T11:15:31.145Z,16.70
2019-04-05T11:16:31.024Z,17.20
2019-04-05T11:17:31.007Z,17.90
2019-04-05T11:18:32.820Z,16.30
2019-04-05T11:19:32.350Z,19.10
2019-04-05T11:20:30.960Z,17.90
2019-04-05T11:21:30.994Z,16.50
2019-04-05T11:22:30.933Z,15.00
2019-04-05T11:23:30.937Z,14.30
2019-04-05T11:24:30.910Z,14.50
2019-04-05T11:25:30.915Z,15.10
2019-04-05T11:26:30.936Z,15.50
2019-04-05T11:27:30.884Z,15.10
2019-04-05T11:28:30.881Z,15.70
2019-04-05T11:29:30.861Z,15.10
2019-04-05T11:30:31.374Z,15.00
2019-04-05T11:31:30.864Z,14.80
2019-04-05T11:32:30.840Z,16.10
2019-04-05T11:33:30.862Z,25.70
2019-04-05T11:34:30.804Z,22.60
2019-04-05T11:35:30.797Z,29.60
2019-04-05T11:36:30.781Z,21.40
2019-04-05T11:37:30.777Z,15.10
2019-04-05T11:38:30.810Z,16.70
2019-04-05T11:39:30.749Z,19.10
2019-04-05T11:40:30.745Z,18.30
2019-04-05T11:41:30.737Z,16.40
2019-04-05T11:42:32.994Z,14.10
2019-04-05T11:43:31.432Z,16.00
2019-04-05T11:44:30.695Z,16.40
2019-04-05T11:45:30.689Z,14.10
2019-04-05T11:46:30.680Z,14.00
2019-04-05T11:47:30.665Z,17.60
2019-04-05T11:48:31.030Z,16.10
2019-04-05T11:49:30.692Z,15.80
2019-04-05T11:50:34.675Z,13.90
2019-04-05T11:51:31.420Z,16.20
2019-04-05T11:52:30.610Z,17.00
2019-04-05T11:53:30.623Z,27.30
2019-04-05T11:54:30.633Z,21.90
2019-04-05T11:55:30.583Z,15.50
2019-04-05T11:56:30.598Z,14.30
2019-04-05T11:57:30.567Z,15.60
2019-04-05T11:58:30.565Z,13.70
2019-04-05T11:59:30.571Z,13.30
2019-04-05T12:00:30.529Z,14.00
2019-04-05T12:01:30.537Z,15.60
2019-04-05T12:02:30.513Z,14.00
2019-04-05T12:03:30.518Z,13.60
2019-04-05T12:04:30.547Z,13.60
2019-04-05T12:05:30.482Z,13.70
2019-04-05T12:06:30.487Z,13.80
2019-04-05T12:07:30.455Z,20.10
2019-04-05T12:08:30.439Z,18.00
2019-04-05T12:09:30.487Z,21.40
2019-04-05T12:10:31.989Z,20.90
2019-04-05T12:11:30.405Z,16.60
2019-04-05T12:12:30.425Z,18.60
2019-04-05T12:13:30.425Z,19.30
2019-04-05T12:14:30.737Z,19.40
2019-04-05T12:15:30.372Z,24.50
2019-04-05T12:16:30.397Z,17.60
2019-04-05T12:17:30.386Z,17.20
2019-04-05T12:18:30.335Z,15.80
2019-04-05T12:19:30.328Z,14.00
2019-04-05T12:20:30.780Z,16.10
2019-04-05T12:21:30.340Z,18.30
2019-04-05T12:22:30.297Z,15.80
2019-04-05T12:23:32.616Z,16.80
2019-04-05T12:24:32.369Z,16.20
2019-04-05T12:25:33.384Z,15.20
2019-04-05T12:26:32.434Z,16.00
2019-04-05T12:27:30.276Z,18.00
2019-04-05T12:28:30.246Z,22.00
2019-04-05T12:29:30.900Z,17.50
2019-04-05T12:30:31.383Z,17.00
2019-04-05T12:31:30.909Z,13.10
2019-04-05T12:32:34.497Z,13.70
2019-04-05T12:33:31.176Z,13.80
2019-04-05T12:34:30.174Z,18.90
2019-04-05T12:35:30.936Z,16.10
2019-04-05T12:36:30.320Z,14.90
2019-04-05T12:37:30.167Z,14.30
2019-04-05T12:38:31.488Z,14.00
2019-04-05T12:39:30.116Z,12.70
2019-04-05T12:40:30.095Z,13.90
2019-04-05T12:41:30.149Z,13.20
2019-04-05T12:42:30.085Z,13.80
2019-04-05T12:43:30.088Z,13.30
2019-04-05T12:44:30.059Z,13.40
2019-04-05T12:45:30.043Z,12.90
2019-04-05T12:46:30.431Z,12.50
2019-04-05T12:47:30.042Z,13.20
2019-04-05T12:48:30.021Z,14.90
2019-04-05T12:49:30.005Z,14.00
2019-04-05T12:50:30.022Z,13.40
2019-04-05T12:51:29.998Z,13.20
2019-04-05T12:52:29.972Z,14.30
2019-04-05T12:53:29.960Z,15.30
2019-04-05T12:54:30.028Z,12.70
2019-04-05T12:55:30.004Z,14.70
2019-04-05T12:56:30.011Z,14.40
2019-04-05T12:57:29.929Z,16.10
2019-04-05T12:58:32.574Z,13.60
2019-04-05T12:59:29.960Z,14.90
2019-04-05T13:00:29.900Z,14.40
2019-04-05T13:01:29.879Z,13.30
2019-04-05T13:02:34.024Z,13.80
2019-04-05T13:03:29.877Z,12.90
2019-04-05T13:04:29.897Z,12.40
2019-04-05T13:05:29.866Z,13.70
2019-04-05T13:06:29.828Z,13.10
2019-04-05T13:07:29.862Z,13.70
2019-04-05T13:08:29.803Z,14.10
2019-04-05T13:09:29.849Z,13.30
2019-04-05T13:10:30.574Z,14.40
2019-04-05T13:11:29.775Z,13.90
2019-04-05T13:12:29.762Z,13.30
2019-04-05T13:13:29.753Z,13.80
2019-04-05T13:14:30.418Z,14.70
2019-04-05T13:15:29.746Z,13.40
2019-04-05T13:16:29.731Z,14.50
2019-04-05T13:17:31.303Z,16.10
2019-04-05T13:18:31.564Z,19.10
2019-04-05T13:19:30.602Z,14.00
2019-04-05T13:20:30.381Z,15.10
2019-04-05T13:21:32.134Z,15.50
2019-04-05T13:22:32.260Z,13.70
2019-04-05T13:23:29.639Z,14.60
2019-04-05T13:24:29.629Z,14.70
2019-04-05T13:25:29.651Z,14.30
2019-04-05T13:26:29.736Z,13.50
2019-04-05T13:27:30.362Z,12.80
2019-04-05T13:28:29.585Z,13.30
2019-04-05T13:29:29.632Z,12.90
2019-04-05T13:30:29.596Z,14.60
2019-04-05T13:31:29.565Z,15.80
2019-04-05T13:32:29.605Z,13.60
2019-04-05T13:33:29.533Z,14.30
2019-04-05T13:34:29.557Z,14.10
2019-04-05T13:35:29.542Z,13.90
2019-04-05T13:36:30.468Z,14.70
2019-04-05T13:37:30.751Z,15.30
2019-04-05T13:38:30.034Z,13.10
2019-04-05T13:39:29.768Z,13.50
2019-04-05T13:40:30.146Z,14.10
2019-04-05T13:41:31.679Z,14.90
2019-04-05T13:42:31.520Z,15.30
2019-04-05T13:43:29.833Z,14.50
2019-04-05T13:44:31.801Z,15.70
2019-04-05T13:45:29.432Z,15.60
2019-04-05T13:46:29.397Z,17.50
2019-04-05T13:47:29.394Z,14.80
2019-04-05T13:48:29.376Z,17.40
2019-04-05T13:49:29.407Z,16.00
2019-04-05T13:50:29.349Z,15.50
2019-04-05T13:51:31.968Z,17.30
2019-04-05T13:52:29.424Z,17.40
2019-04-05T13:53:29.339Z,15.30
2019-04-05T13:54:29.353Z,15.50
2019-04-05T13:55:29.304Z,15.50
2019-04-05T13:56:29.854Z,15.30
2019-04-05T13:57:29.276Z,15.90
2019-04-05T13:58:29.277Z,16.60
2019-04-05T13:59:29.298Z,16.30
2019-04-05T14:00:29.254Z,15.60
2019-04-05T14:01:29.248Z,17.10
2019-04-05T14:02:30.647Z,15.10
2019-04-05T14:03:30.478Z,17.10
2019-04-05T14:04:29.877Z,15.20
2019-04-05T14:05:29.283Z,16.80
2019-04-05T14:06:29.214Z,15.70
2019-04-05T14:07:30.409Z,15.00
2019-04-05T14:08:29.227Z,15.40
2019-04-05T14:09:31.543Z,16.30
2019-04-05T14:10:29.217Z,15.90
2019-04-05T14:11:29.130Z,15.10
2019-04-05T14:12:31.287Z,16.80
2019-04-05T14:13:29.114Z,15.90
2019-04-05T14:14:29.138Z,15.20
2019-04-05T14:15:31.373Z,15.10
2019-04-05T14:16:29.101Z,15.20
2019-04-05T14:17:29.097Z,18.90
2019-04-05T14:18:29.060Z,16.50
2019-04-05T14:19:29.079Z,15.70
2019-04-05T14:20:29.105Z,14.20
2019-04-05T14:21:39.748Z,16.80
2019-04-05T14:22:30.071Z,17.30
2019-04-05T14:23:29.007Z,15.20
2019-04-05T14:24:29.018Z,16.20
2019-04-05T14:25:30.268Z,15.60
2019-04-05T14:26:29.335Z,15.40
2019-04-05T14:27:28.969Z,17.20
2019-04-05T14:28:28.973Z,16.50
2019-04-05T14:29:29.039Z,16.20
2019-04-05T14:30:32.638Z,14.00
2019-04-05T14:31:29.602Z,15.30
2019-04-05T14:32:30.032Z,17.20
2019-04-05T14:33:28.899Z,15.00
2019-04-05T14:34:28.924Z,15.60
2019-04-05T14:35:28.872Z,15.40
2019-04-05T14:36:29.044Z,14.70
2019-04-05T14:37:29.608Z,15.80
2019-04-05T14:38:31.299Z,15.50
2019-04-05T14:39:29.884Z,16.50
2019-04-05T14:40:31.625Z,15.80
2019-04-05T14:41:28.820Z,18.40
2019-04-05T14:42:30.422Z,15.20
2019-04-05T14:43:29.201Z,15.90
2019-04-05T14:44:28.879Z,17.10
2019-04-05T14:45:28.770Z,16.20
2019-04-05T14:46:29.190Z,15.50
2019-04-05T14:47:28.995Z,16.00
2019-04-05T14:48:31.675Z,17.80
2019-04-05T14:49:30.708Z,17.60
2019-04-05T14:50:29.043Z,15.40
2019-04-05T14:51:29.341Z,17.10
2019-04-05T14:52:30.929Z,16.30
2019-04-05T14:53:31.761Z,16.70
2019-04-05T14:54:30.280Z,14.50
2019-04-05T14:55:29.965Z,15.30
2019-04-05T14:56:29.210Z,14.80
2019-04-05T14:57:28.664Z,14.90
2019-04-05T14:58:28.652Z,15.10
2019-04-05T14:59:28.670Z,15.70
2019-04-05T15:00:28.614Z,15.60
2019-04-05T15:01:28.670Z,13.60
2019-04-05T15:02:28.599Z,14.30
2019-04-05T15:03:28.574Z,15.10
2019-04-05T15:04:28.691Z,14.20
2019-04-05T15:05:28.553Z,14.80
2019-04-05T15:06:28.564Z,15.40
2019-04-05T15:07:28.560Z,16.20
2019-04-05T15:08:28.520Z,14.90
2019-04-05T15:09:28.538Z,14.70
2019-04-05T15:10:28.499Z,17.90
2019-04-05T15:11:29.462Z,15.50
2019-04-05T15:12:29.150Z,14.90
2019-04-05T15:13:28.550Z,16.80
2019-04-05T15:14:28.462Z,15.90
2019-04-05T15:15:28.925Z,15.60
2019-04-05T15:16:28.456Z,15.50
2019-04-05T15:17:28.435Z,15.50
2019-04-05T15:18:28.478Z,17.50
2019-04-05T15:19:28.615Z,16.00
2019-04-05T15:20:28.393Z,16.10
2019-04-05T15:21:28.427Z,15.00
2019-04-05T15:22:28.374Z,14.80
2019-04-05T15:23:28.360Z,16.20
2019-04-05T15:24:28.360Z,15.10
2019-04-05T15:25:28.345Z,15.80
2019-04-05T15:26:28.390Z,16.40
2019-04-05T15:27:28.340Z,16.60
2019-04-05T15:28:28.337Z,15.80
2019-04-05T15:29:28.297Z,15.20
2019-04-05T15:30:28.322Z,15.00
2019-04-05T15:31:28.300Z,15.90
2019-04-05T15:32:28.273Z,15.20
2019-04-05T15:33:28.490Z,15.70
2019-04-05T15:34:29.187Z,15.80
2019-04-05T15:35:30.693Z,15.20
2019-04-05T15:36:29.438Z,16.00
2019-04-05T15:37:31.787Z,17.10
2019-04-05T15:38:31.294Z,16.80
2019-04-05T15:39:28.562Z,15.60
2019-04-05T15:40:28.761Z,17.40
2019-04-05T15:41:28.167Z,17.00
2019-04-05T15:42:28.183Z,15.00
2019-04-05T15:43:28.313Z,16.60
2019-04-05T15:44:28.140Z,14.60
2019-04-05T15:45:28.351Z,15.60
2019-04-05T15:46:28.426Z,17.60
2019-04-05T15:47:28.497Z,15.50
2019-04-05T15:48:28.293Z,18.10
2019-04-05T15:49:28.099Z,16.50
2019-04-05T15:50:28.161Z,16.10
2019-04-05T15:51:28.426Z,18.00
2019-04-05T15:52:31.383Z,16.80
2019-04-05T15:53:31.898Z,17.70
2019-04-05T15:54:29.229Z,18.50
2019-04-05T15:55:28.026Z,16.10
2019-04-05T15:56:28.159Z,18.90
2019-04-05T15:57:28.115Z,19.60
2019-04-05T15:58:28.231Z,20.20
2019-04-05T15:59:28.083Z,17.60
2019-04-05T16:00:28.099Z,18.40
2019-04-05T16:01:28.431Z,15.90
2019-04-05T16:02:27.987Z,16.90
2019-04-05T16:03:27.958Z,16.90
2019-04-05T16:04:27.996Z,17.30
2019-04-05T16:05:27.916Z,16.20
2019-04-05T16:06:27.918Z,17.20
2019-04-05T16:07:27.902Z,14.70
2019-04-05T16:08:27.883Z,16.80
2019-04-05T16:09:27.918Z,17.40
2019-04-05T16:10:27.869Z,15.20
2019-04-05T16:11:27.855Z,16.80
2019-04-05T16:12:27.891Z,17.20
2019-04-05T16:13:27.849Z,19.00
2019-04-05T16:14:27.900Z,17.00
2019-04-05T16:15:27.806Z,16.70
2019-04-05T16:16:27.877Z,17.00
2019-04-05T16:17:27.785Z,17.00
2019-04-05T16:18:27.784Z,18.50
2019-04-05T16:19:27.794Z,16.90
2019-04-05T16:20:27.761Z,20.10
2019-04-05T16:21:27.790Z,17.10
2019-04-05T16:22:31.461Z,18.30
2019-04-05T16:23:27.717Z,18.00
2019-04-05T16:24:27.740Z,16.20
2019-04-05T16:25:27.729Z,20.10
2019-04-05T16:26:27.701Z,19.20
2019-04-05T16:27:27.706Z,17.40
2019-04-05T16:28:27.694Z,19.10
2019-04-05T16:29:27.659Z,19.80
2019-04-05T16:30:27.906Z,17.80
2019-04-05T16:31:28.390Z,18.10
2019-04-05T16:32:27.733Z,17.60
2019-04-05T16:33:27.654Z,18.30
2019-04-05T16:34:27.681Z,18.70
2019-04-05T16:35:27.602Z,19.00
2019-04-05T16:36:31.000Z,20.40
2019-04-05T16:37:27.633Z,20.10
2019-04-05T16:38:27.788Z,18.50
2019-04-05T16:39:27.594Z,18.80
2019-04-05T16:40:27.596Z,19.40
2019-04-05T16:41:27.545Z,19.10
2019-04-05T16:42:27.518Z,21.60
2019-04-05T16:43:27.510Z,21.00
2019-04-05T16:44:27.543Z,21.70
2019-04-05T16:45:28.910Z,21.80
2019-04-05T16:46:27.472Z,21.40
2019-04-05T16:47:28.302Z,21.30
2019-04-05T16:48:27.508Z,19.60
2019-04-05T16:49:27.492Z,21.40
2019-04-05T16:50:27.436Z,24.10
2019-04-05T16:51:27.431Z,21.00
2019-04-05T16:52:27.411Z,21.30
2019-04-05T16:53:27.427Z,20.70
2019-04-05T16:54:27.732Z,21.40
2019-04-05T16:55:27.409Z,21.60
2019-04-05T16:56:27.371Z,20.00
2019-04-05T16:57:27.368Z,23.20
2019-04-05T16:58:27.409Z,22.40
2019-04-05T16:59:27.371Z,24.70
2019-04-05T17:00:27.355Z,22.30
2019-04-05T17:01:27.743Z,23.10
2019-04-05T17:02:27.311Z,23.50
2019-04-05T17:03:27.363Z,21.90
2019-04-05T17:04:27.287Z,23.30
2019-04-05T17:05:27.322Z,23.80
2019-04-05T17:06:27.299Z,21.60
2019-04-05T17:07:27.307Z,24.80
2019-04-05T17:08:27.304Z,23.60
2019-04-05T17:09:27.233Z,24.50
2019-04-05T17:10:27.247Z,24.20
2019-04-05T17:11:27.229Z,23.30
2019-04-05T17:12:27.208Z,24.70
2019-04-05T17:13:27.333Z,23.20
2019-04-05T17:14:27.210Z,26.20
2019-04-05T17:15:27.200Z,25.70
2019-04-05T17:16:27.173Z,26.40
2019-04-05T17:17:27.157Z,24.70
2019-04-05T17:18:27.454Z,24.90
2019-04-05T17:19:27.160Z,23.50
2019-04-05T17:20:27.137Z,25.40
2019-04-05T17:21:27.108Z,26.60
2019-04-05T17:22:27.110Z,26.50
2019-04-05T17:23:27.119Z,23.30
2019-04-05T17:24:27.102Z,24.60
2019-04-05T17:25:27.102Z,24.70
2019-04-05T17:26:27.057Z,27.30
2019-04-05T17:27:27.121Z,24.90
2019-04-05T17:28:27.039Z,26.70
2019-04-05T17:29:27.061Z,24.50
2019-04-05T17:30:27.023Z,27.40
2019-04-05T17:31:27.054Z,28.20
2019-04-05T17:32:27.059Z,26.70
2019-04-05T17:33:26.991Z,24.80
2019-04-05T17:34:26.967Z,25.40
2019-04-05T17:35:26.992Z,23.80
2019-04-05T17:36:26.975Z,26.90
2019-04-05T17:37:26.979Z,26.90
2019-04-05T17:38:27.001Z,25.20
2019-04-05T17:39:26.951Z,25.40
2019-04-05T17:40:26.942Z,24.30
2019-04-05T17:41:26.907Z,26.80
2019-04-05T17:42:27.017Z,26.40
2019-04-05T17:43:26.914Z,29.70
2019-04-05T17:44:26.875Z,29.60
2019-04-05T17:45:26.910Z,27.00
2019-04-05T17:46:26.841Z,26.40
2019-04-05T17:47:26.854Z,25.40
2019-04-05T17:48:26.874Z,24.50
2019-04-05T17:49:26.853Z,27.60
2019-04-05T17:50:26.826Z,28.00
2019-04-05T17:51:26.787Z,29.50
2019-04-05T17:52:26.793Z,27.60
2019-04-05T17:53:26.820Z,27.30
2019-04-05T17:54:26.787Z,28.70
2019-04-05T17:55:26.757Z,27.30
2019-04-05T17:56:26.739Z,27.20
2019-04-05T17:57:26.731Z,28.80
2019-04-05T17:58:26.743Z,25.00
2019-04-05T17:59:26.735Z,27.90
